Time,TemperatureF,DewpointF,PressureIn,WindDirection,WindDirectionDegrees,WindSpeedMPH,WindSpeedGustMPH,Humidity,HourlyPrecipIn,Conditions,Clouds,dailyrainin,SoftwareType,DateUTC
2013-05-24 00:00:00,73.9,69.4,29.93,WNW,290,0.0,0.0,86,0.00,,,0.00,Wunderground v.1.15,2013-05-24 04:00:00,
2013-05-24 00:05:00,73.7,69.2,29.93,WNW,290,0.0,0.0,86,0.00,,,0.00,Wunderground v.1.15,2013-05-24 04:05:00,
2013-05-24 00:15:00,73.3,69.2,29.93,WNW,290,0.0,0.0,87,0.00,,,0.00,Wunderground v.1.15,2013-05-24 04:15:00,
2013-05-24 00:20:00,73.2,69.1,29.93,WNW,290,0.0,0.0,87,0.00,,,0.00,Wunderground v.1.15,2013-05-24 04:20:00,
2013-05-24 00:25:00,73.2,69.4,29.93,WNW,290,0.0,0.0,88,0.00,,,0.00,Wunderground v.1.15,2013-05-24 04:25:00,
2013-05-24 00:30:00,73.0,69.2,29.93,WNW,290,0.0,0.0,88,0.00,,,0.00,Wunderground v.1.15,2013-05-24 04:30:00,
2013-05-24 00:35:00,72.8,69.4,29.93,WNW,290,0.0,0.0,89,0.00,,,0.00,Wunderground v.1.15,2013-05-24 04:35:00,
2013-05-24 00:40:00,72.8,69.4,29.93,WNW,290,0.0,0.0,89,0.00,,,0.00,Wunderground v.1.15,2013-05-24 04:40:00,
2013-05-24 00:45:00,72.7,69.3,29.94,WNW,290,0.0,0.0,89,0.00,,,0.00,Wunderground v.1.15,2013-05-24 04:45:00,
2013-05-24 00:55:00,72.7,69.6,29.94,WNW,290,0.0,0.0,90,0.00,,,0.00,Wunderground v.1.15,2013-05-24 04:55:00,
2013-05-24 01:05:00,72.5,69.4,29.94,WNW,290,0.0,0.0,90,0.00,,,0.00,Wunderground v.1.15,2013-05-24 05:05:00,
2013-05-24 01:15:00,72.5,69.7,29.94,WNW,290,0.0,0.0,91,0.00,,,0.00,Wunderground v.1.15,2013-05-24 05:15:00,
2013-05-24 01:20:00,72.3,69.5,29.93,WNW,290,0.0,0.0,91,0.00,,,0.00,Wunderground v.1.15,2013-05-24 05:20:00,
2013-05-24 01:30:00,72.1,69.3,29.93,WNW,290,0.0,0.0,91,0.00,,,0.00,Wunderground v.1.15,2013-05-24 05:30:00,
2013-05-24 01:40:00,72.1,69.6,29.93,WNW,290,0.0,0.0,92,0.00,,,0.00,Wunderground v.1.15,2013-05-24 05:40:00,
2013-05-24 01:50:00,71.8,69.3,29.93,WNW,290,0.0,0.0,92,0.00,,,0.00,Wunderground v.1.15,2013-05-24 05:50:00,
2013-05-24 02:00:00,72.0,69.9,29.92,WNW,290,0.0,0.0,93,0.00,,,0.00,Wunderground v.1.15,2013-05-24 06:00:00,
2013-05-24 02:05:00,71.8,69.7,29.92,WNW,290,0.0,0.0,93,0.00,,,0.00,Wunderground v.1.15,2013-05-24 06:05:00,
2013-05-24 02:15:00,71.8,69.7,29.92,WNW,290,0.0,0.0,93,0.00,,,0.00,Wunderground v.1.15,2013-05-24 06:15:00,
2013-05-24 02:25:00,71.8,70.0,29.92,WNW,290,0.0,0.0,94,0.00,,,0.00,Wunderground v.1.15,2013-05-24 06:25:00,
2013-05-24 02:35:00,71.8,70.0,29.92,WNW,290,0.0,0.0,94,0.00,,,0.00,Wunderground v.1.15,2013-05-24 06:35:00,
2013-05-24 02:45:00,71.8,70.0,29.92,WNW,290,0.0,0.0,94,0.00,,,0.00,Wunderground v.1.15,2013-05-24 06:45:00,
2013-05-24 02:55:00,71.8,70.3,29.92,WNW,290,0.0,0.0,95,0.00,,,0.00,Wunderground v.1.15,2013-05-24 06:55:00,
2013-05-24 03:05:00,71.8,70.3,29.92,WNW,290,0.0,0.0,95,0.00,,,0.00,Wunderground v.1.15,2013-05-24 07:05:00,
2013-05-24 03:15:00,71.8,70.3,29.92,WNW,290,0.0,0.0,95,0.00,,,0.00,Wunderground v.1.15,2013-05-24 07:15:00,
2013-05-24 03:25:00,71.8,70.3,29.92,WNW,290,0.0,0.0,95,0.00,,,0.00,Wunderground v.1.15,2013-05-24 07:25:00,
2013-05-24 03:35:00,71.8,70.3,29.91,WNW,290,0.0,0.0,95,0.00,,,0.00,Wunderground v.1.15,2013-05-24 07:35:00,
2013-05-24 03:45:00,71.8,70.3,29.91,WNW,290,0.0,0.0,95,0.00,,,0.00,Wunderground v.1.15,2013-05-24 07:45:00,
2013-05-24 03:55:00,71.8,70.6,29.91,WNW,290,0.0,0.0,96,0.00,,,0.00,Wunderground v.1.15,2013-05-24 07:55:00,
2013-05-24 04:05:00,71.8,70.6,29.91,WNW,290,0.0,0.0,96,0.00,,,0.00,Wunderground v.1.15,2013-05-24 08:05:00,
2013-05-24 04:15:00,71.8,70.6,29.90,WNW,290,0.0,0.0,96,0.00,,,0.00,Wunderground v.1.15,2013-05-24 08:15:00,
2013-05-24 04:25:00,71.8,70.6,29.90,WNW,290,0.0,0.0,96,0.00,,,0.00,Wunderground v.1.15,2013-05-24 08:25:00,
2013-05-24 04:35:00,71.6,70.4,29.91,WNW,290,0.0,0.0,96,0.00,,,0.00,Wunderground v.1.15,2013-05-24 08:35:00,
2013-05-24 04:45:00,71.6,70.4,29.91,WNW,290,0.0,0.0,96,0.00,,,0.00,Wunderground v.1.15,2013-05-24 08:45:00,
2013-05-24 04:55:00,71.5,70.3,29.91,WNW,290,0.0,0.0,96,0.00,,,0.00,Wunderground v.1.15,2013-05-24 08:55:00,
2013-05-24 05:05:00,71.3,70.1,29.92,WNW,290,0.0,0.0,96,0.00,,,0.00,Wunderground v.1.15,2013-05-24 09:05:00,
2013-05-24 05:15:00,71.1,69.9,29.92,WNW,290,0.0,0.0,96,0.00,,,0.00,Wunderground v.1.15,2013-05-24 09:15:00,
2013-05-24 05:25:00,70.9,69.7,29.92,WNW,290,0.0,0.0,96,0.00,,,0.00,Wunderground v.1.15,2013-05-24 09:25:00,
2013-05-24 05:35:00,70.8,69.6,29.92,WNW,290,0.0,0.0,96,0.00,,,0.00,Wunderground v.1.15,2013-05-24 09:35:00,
2013-05-24 05:45:00,70.8,69.6,29.92,WNW,290,0.0,0.0,96,0.00,,,0.00,Wunderground v.1.15,2013-05-24 09:45:00,
2013-05-24 05:55:00,70.6,69.4,29.92,WNW,290,0.0,0.0,96,0.00,,,0.00,Wunderground v.1.15,2013-05-24 09:55:00,
2013-05-24 06:05:00,70.8,69.6,29.93,WNW,290,0.0,0.0,96,0.00,,,0.00,Wunderground v.1.15,2013-05-24 10:05:00,
2013-05-24 06:15:00,70.9,69.7,29.93,WNW,290,0.0,0.0,96,0.00,,,0.00,Wunderground v.1.15,2013-05-24 10:15:00,
2013-05-24 06:20:00,71.1,70.2,29.93,WNW,290,0.0,0.0,97,0.00,,,0.00,Wunderground v.1.15,2013-05-24 10:20:00,
2013-05-24 06:30:00,71.3,70.4,29.94,WNW,290,0.0,0.0,97,0.00,,,0.00,Wunderground v.1.15,2013-05-24 10:30:00,
2013-05-24 06:40:00,71.6,70.7,29.94,WNW,290,0.0,0.0,97,0.00,,,0.00,Wunderground v.1.15,2013-05-24 10:40:00,
2013-05-24 06:50:00,71.8,70.9,29.95,WNW,290,0.0,0.0,97,0.00,,,0.00,Wunderground v.1.15,2013-05-24 10:50:00,
2013-05-24 07:00:00,71.8,70.9,29.95,WNW,290,0.0,0.0,97,0.00,,,0.00,Wunderground v.1.15,2013-05-24 11:00:00,
2013-05-24 07:05:00,71.8,70.9,29.95,WNW,290,0.0,0.0,97,0.00,,,0.00,Wunderground v.1.15,2013-05-24 11:05:00,
2013-05-24 07:15:00,72.0,71.1,29.95,WSW,253,0.0,0.0,97,0.00,,,0.00,Wunderground v.1.15,2013-05-24 11:15:00,
2013-05-24 07:25:00,72.1,71.2,29.95,SSE,154,0.0,0.0,97,0.00,,,0.00,Wunderground v.1.15,2013-05-24 11:25:00,
2013-05-24 07:35:00,72.3,71.4,29.96,SSE,154,0.0,0.0,97,0.00,,,0.00,Wunderground v.1.15,2013-05-24 11:35:00,
2013-05-24 07:45:00,72.7,71.8,29.96,SSE,154,0.0,0.0,97,0.00,,,0.00,Wunderground v.1.15,2013-05-24 11:45:00,
2013-05-24 07:55:00,73.0,72.1,29.96,SSW,194,0.0,0.0,97,0.00,,,0.00,Wunderground v.1.15,2013-05-24 11:55:00,
2013-05-24 08:05:00,73.3,72.1,29.96,WNW,291,0.0,0.0,96,0.00,,,0.00,Wunderground v.1.15,2013-05-24 12:05:00,
2013-05-24 08:15:00,73.5,72.3,29.96,SW,225,0.0,0.0,96,0.00,,,0.00,Wunderground v.1.15,2013-05-24 12:15:00,
2013-05-24 08:20:00,73.7,72.5,29.96,West,271,0.0,0.0,96,0.00,,,0.00,Wunderground v.1.15,2013-05-24 12:20:00,
2013-05-24 08:30:00,74.0,72.5,29.96,West,271,0.0,0.0,95,0.00,,,0.00,Wunderground v.1.15,2013-05-24 12:30:00,
2013-05-24 08:40:00,74.7,72.9,29.96,West,271,0.0,0.0,94,0.00,,,0.00,Wunderground v.1.15,2013-05-24 12:40:00,
2013-05-24 08:50:00,75.4,72.6,29.96,NNW,333,0.0,0.0,91,0.00,,,0.00,Wunderground v.1.15,2013-05-24 12:50:00,
2013-05-24 09:00:00,76.7,72.2,29.97,NNW,333,0.0,0.0,86,0.00,,,0.00,Wunderground v.1.15,2013-05-24 13:00:00,
2013-05-24 09:05:00,77.2,71.3,29.97,North,5,0.0,0.0,82,0.00,,,0.00,Wunderground v.1.15,2013-05-24 13:05:00,
2013-05-24 09:15:00,78.5,70.7,29.97,WNW,296,0.0,0.0,77,0.00,,,0.00,Wunderground v.1.15,2013-05-24 13:15:00,
2013-05-24 09:20:00,78.8,70.6,29.97,WNW,296,0.0,0.0,76,0.00,,,0.00,Wunderground v.1.15,2013-05-24 13:20:00,
2013-05-24 09:30:00,80.1,70.7,29.98,WNW,299,0.0,0.0,73,0.00,,,0.00,Wunderground v.1.15,2013-05-24 13:30:00,
2013-05-24 09:40:00,81.2,69.6,29.98,West,261,0.0,0.0,68,0.00,,,0.00,Wunderground v.1.15,2013-05-24 13:40:00,
2013-05-24 09:50:00,82.4,68.5,29.98,NNE,30,0.0,0.0,63,0.00,,,0.00,Wunderground v.1.15,2013-05-24 13:50:00,
2013-05-24 10:00:00,83.6,68.7,29.98,NNE,28,0.0,1.0,61,0.00,,,0.00,Wunderground v.1.15,2013-05-24 14:00:00,
2013-05-24 10:05:00,84.3,68.4,29.98,NNE,26,0.0,3.0,59,0.00,,,0.00,Wunderground v.1.15,2013-05-24 14:05:00,
2013-05-24 10:15:00,85.1,67.1,29.98,ENE,66,0.0,1.0,55,0.00,,,0.00,Wunderground v.1.15,2013-05-24 14:15:00,
2013-05-24 10:25:00,85.5,67.5,29.98,SW,234,0.0,0.0,55,0.00,,,0.00,Wunderground v.1.15,2013-05-24 14:25:00,
2013-05-24 10:35:00,87.2,68.0,29.98,NNE,29,0.0,0.0,53,0.00,,,0.00,Wunderground v.1.15,2013-05-24 14:35:00,
2013-05-24 10:45:00,88.0,66.4,29.98,East,89,0.0,1.0,49,0.00,,,0.00,Wunderground v.1.15,2013-05-24 14:45:00,
2013-05-24 10:50:00,88.2,65.4,29.98,North,360,0.0,0.0,47,0.00,,,0.00,Wunderground v.1.15,2013-05-24 14:50:00,
2013-05-24 11:00:00,88.4,65.6,29.98,NE,34,0.0,0.0,47,0.00,,,0.00,Wunderground v.1.15,2013-05-24 15:00:00,
2013-05-24 11:05:00,88.4,65.0,29.98,NE,38,0.0,0.0,46,0.00,,,0.00,Wunderground v.1.15,2013-05-24 15:05:00,
2013-05-24 11:15:00,89.3,65.8,29.99,NE,45,0.0,0.0,46,0.00,,,0.00,Wunderground v.1.15,2013-05-24 15:15:00,
2013-05-24 11:25:00,89.5,64.7,29.99,NNE,15,0.0,0.0,44,0.00,,,0.00,Wunderground v.1.15,2013-05-24 15:25:00,
2013-05-24 11:35:00,89.3,66.4,29.99,ESE,118,0.0,0.0,47,0.00,,,0.00,Wunderground v.1.15,2013-05-24 15:35:00,
2013-05-24 11:45:00,90.1,63.2,29.98,SSW,209,0.0,0.0,41,0.00,,,0.00,Wunderground v.1.15,2013-05-24 15:45:00,
2013-05-24 11:55:00,90.3,64.1,29.98,SSW,200,0.0,0.0,42,0.00,,,0.00,Wunderground v.1.15,2013-05-24 15:55:00,
2013-05-24 12:05:00,90.5,63.6,29.98,ENE,58,1.0,1.0,41,0.00,,,0.00,Wunderground v.1.15,2013-05-24 16:05:00,
2013-05-24 12:15:00,91.0,61.9,29.98,West,263,1.0,3.0,38,0.00,,,0.00,Wunderground v.1.15,2013-05-24 16:15:00,
2013-05-24 12:20:00,91.4,63.0,29.99,NNE,12,0.0,0.0,39,0.00,,,0.00,Wunderground v.1.15,2013-05-24 16:20:00,
2013-05-24 12:30:00,91.6,61.6,29.98,SW,224,1.0,1.0,37,0.00,,,0.00,Wunderground v.1.15,2013-05-24 16:30:00,
2013-05-24 12:40:00,91.2,58.9,29.98,East,80,1.0,1.0,34,0.00,,,0.00,Wunderground v.1.15,2013-05-24 16:40:00,
2013-05-24 12:45:00,90.7,60.1,29.98,NE,51,2.0,2.0,36,0.00,,,0.00,Wunderground v.1.15,2013-05-24 16:45:00,
2013-05-24 12:55:00,90.3,61.2,29.98,WNW,296,1.0,1.0,38,0.00,,,0.00,Wunderground v.1.15,2013-05-24 16:55:00,
2013-05-24 13:05:00,91.4,63.0,29.98,West,260,1.0,1.0,39,0.00,,,0.00,Wunderground v.1.15,2013-05-24 17:05:00,
2013-05-24 13:15:00,92.9,58.7,29.98,WSW,247,1.0,1.0,32,0.00,,,0.00,Wunderground v.1.15,2013-05-24 17:15:00,
2013-05-24 13:20:00,92.7,61.8,29.98,SW,218,1.0,1.0,36,0.00,,,0.00,Wunderground v.1.15,2013-05-24 17:20:00,
2013-05-24 13:30:00,91.8,59.4,29.97,NNE,30,1.0,1.0,34,0.00,,,0.00,Wunderground v.1.15,2013-05-24 17:30:00,
2013-05-24 13:40:00,92.5,63.2,29.97,WSW,251,1.0,1.0,38,0.00,,,0.00,Wunderground v.1.15,2013-05-24 17:40:00,
2013-05-24 13:50:00,92.7,58.5,29.96,ENE,69,1.0,1.0,32,0.00,,,0.00,Wunderground v.1.15,2013-05-24 17:50:00,
2013-05-24 14:00:00,91.2,59.7,29.96,NNE,18,1.0,1.0,35,0.00,,,0.00,Wunderground v.1.15,2013-05-24 18:00:00,
2013-05-24 14:05:00,91.8,58.6,29.96,SW,229,1.0,1.0,33,0.00,,,0.00,Wunderground v.1.15,2013-05-24 18:05:00,
2013-05-24 14:15:00,92.1,60.5,29.96,SW,215,1.0,1.0,35,0.00,,,0.00,Wunderground v.1.15,2013-05-24 18:15:00,
2013-05-24 14:25:00,92.3,59.0,29.96,NNE,24,1.0,2.0,33,0.00,,,0.00,Wunderground v.1.15,2013-05-24 18:25:00,
2013-05-24 14:30:00,92.5,60.0,29.96,NNE,26,2.0,2.0,34,0.00,,,0.00,Wunderground v.1.15,2013-05-24 18:30:00,
2013-05-24 14:40:00,93.2,60.7,29.96,WSW,244,1.0,1.0,34,0.00,,,0.00,Wunderground v.1.15,2013-05-24 18:40:00,
2013-05-24 14:50:00,94.3,58.1,29.96,NNE,18,1.0,2.0,30,0.00,,,0.00,Wunderground v.1.15,2013-05-24 18:50:00,
2013-05-24 14:55:00,93.6,59.3,29.96,SW,235,1.0,2.0,32,0.00,,,0.00,Wunderground v.1.15,2013-05-24 18:55:00,
2013-05-24 15:05:00,92.3,61.5,29.96,SW,215,1.0,2.0,36,0.00,,,0.00,Wunderground v.1.15,2013-05-24 19:05:00,
2013-05-24 15:15:00,93.2,59.8,29.95,NW,305,1.0,1.0,33,0.00,,,0.00,Wunderground v.1.15,2013-05-24 19:15:00,
2013-05-24 15:25:00,93.4,60.8,29.95,SW,229,1.0,1.0,34,0.00,,,0.00,Wunderground v.1.15,2013-05-24 19:25:00,
2013-05-24 15:35:00,92.1,61.3,29.95,West,275,1.0,1.0,36,0.00,,,0.00,Wunderground v.1.15,2013-05-24 19:35:00,
2013-05-24 15:45:00,92.1,61.3,29.95,NNE,28,1.0,2.0,36,0.00,,,0.00,Wunderground v.1.15,2013-05-24 19:45:00,
2013-05-24 15:55:00,92.5,60.0,29.95,NNE,33,1.0,1.0,34,0.00,,,0.00,Wunderground v.1.15,2013-05-24 19:55:00,
2013-05-24 16:05:00,91.8,61.8,29.94,NNE,24,0.0,1.0,37,0.00,,,0.00,Wunderground v.1.15,2013-05-24 20:05:00,
2013-05-24 16:15:00,92.1,60.5,29.94,WSW,238,1.0,1.0,35,0.00,,,0.00,Wunderground v.1.15,2013-05-24 20:15:00,
2013-05-24 16:20:00,91.8,59.4,29.93,WNW,288,1.0,1.0,34,0.00,,,0.00,Wunderground v.1.15,2013-05-24 20:20:00,
2013-05-24 16:30:00,91.6,59.3,29.93,NW,306,1.0,1.0,34,0.00,,,0.00,Wunderground v.1.15,2013-05-24 20:30:00,
2013-05-24 16:40:00,92.3,59.9,29.93,NW,319,1.0,1.0,34,0.00,,,0.00,Wunderground v.1.15,2013-05-24 20:40:00,
2013-05-24 16:45:00,92.3,58.2,29.93,WNW,302,1.0,4.0,32,0.00,,,0.00,Wunderground v.1.15,2013-05-24 20:45:00,
2013-05-24 16:55:00,92.3,59.9,29.93,NNE,32,1.0,5.0,34,0.00,,,0.00,Wunderground v.1.15,2013-05-24 20:55:00,
2013-05-24 17:05:00,92.5,58.4,29.93,NW,310,1.0,1.0,32,0.00,,,0.00,Wunderground v.1.15,2013-05-24 21:05:00,
2013-05-24 17:15:00,91.8,61.0,29.93,SSW,209,1.0,1.0,36,0.00,,,0.00,Wunderground v.1.15,2013-05-24 21:15:00,
2013-05-24 17:20:00,91.6,60.1,29.93,NNW,343,0.0,0.0,35,0.00,,,0.00,Wunderground v.1.15,2013-05-24 21:20:00,
2013-05-24 17:30:00,91.6,60.1,29.93,SSW,194,0.0,0.0,35,0.00,,,0.00,Wunderground v.1.15,2013-05-24 21:30:00,
2013-05-24 17:40:00,91.2,58.9,29.93,North,9,1.0,5.0,34,0.00,,,0.00,Wunderground v.1.15,2013-05-24 21:40:00,
2013-05-24 17:50:00,90.3,58.9,29.93,WNW,303,1.0,2.0,35,0.00,,,0.00,Wunderground v.1.15,2013-05-24 21:50:00,
2013-05-24 18:00:00,90.5,59.9,29.93,WNW,285,0.0,0.0,36,0.00,,,0.00,Wunderground v.1.15,2013-05-24 22:00:00,
2013-05-24 18:05:00,90.5,59.1,29.93,NW,324,0.0,1.0,35,0.00,,,0.00,Wunderground v.1.15,2013-05-24 22:05:00,
2013-05-24 18:15:00,90.1,58.8,29.93,SW,230,1.0,3.0,35,0.00,,,0.00,Wunderground v.1.15,2013-05-24 22:15:00,
2013-05-24 18:20:00,90.1,59.5,29.93,NNW,346,1.0,1.0,36,0.00,,,0.00,Wunderground v.1.15,2013-05-24 22:20:00,
2013-05-24 18:30:00,89.7,58.4,29.93,NNE,30,0.0,0.0,35,0.00,,,0.00,Wunderground v.1.15,2013-05-24 22:30:00,
2013-05-24 18:40:00,89.7,59.2,29.93,NNW,338,0.0,1.0,36,0.00,,,0.00,Wunderground v.1.15,2013-05-24 22:40:00,
2013-05-24 18:50:00,89.3,57.3,29.93,North,360,0.0,0.0,34,0.00,,,0.00,Wunderground v.1.15,2013-05-24 22:50:00,
2013-05-24 19:00:00,88.8,57.6,29.93,SSW,199,0.0,0.0,35,0.00,,,0.00,Wunderground v.1.15,2013-05-24 23:00:00,
2013-05-24 19:05:00,88.6,57.4,29.93,SSW,196,0.0,0.0,35,0.00,,,0.00,Wunderground v.1.15,2013-05-24 23:05:00,
2013-05-24 19:15:00,88.2,57.1,29.93,WSW,240,0.0,0.0,35,0.00,,,0.00,Wunderground v.1.15,2013-05-24 23:15:00,
2013-05-24 19:25:00,87.6,58.1,29.93,NNE,26,0.0,1.0,37,0.00,,,0.00,Wunderground v.1.15,2013-05-24 23:25:00,
2013-05-24 19:35:00,87.2,57.0,29.94,NNE,26,0.0,0.0,36,0.00,,,0.00,Wunderground v.1.15,2013-05-24 23:35:00,
2013-05-24 19:45:00,86.7,58.1,29.95,NNE,27,0.0,0.0,38,0.00,,,0.00,Wunderground v.1.15,2013-05-24 23:45:00,
2013-05-24 19:55:00,86.1,56.8,29.95,North,11,0.0,0.0,37,0.00,,,0.00,Wunderground v.1.15,2013-05-24 23:55:00,
2013-05-24 20:00:00,85.9,57.3,29.95,North,11,0.0,0.0,38,0.00,,,0.00,Wunderground v.1.15,2013-05-25 00:00:00,
2013-05-24 20:05:00,85.7,56.4,29.95,North,11,0.0,0.0,37,0.00,,,0.00,Wunderground v.1.15,2013-05-25 00:05:00,
2013-05-24 20:15:00,85.1,56.6,29.95,North,11,0.0,0.0,38,0.00,,,0.00,Wunderground v.1.15,2013-05-25 00:15:00,
2013-05-24 20:25:00,84.7,56.3,29.95,North,11,0.0,1.0,38,0.00,,,0.00,Wunderground v.1.15,2013-05-25 00:25:00,
2013-05-24 20:35:00,84.1,56.5,29.96,North,11,0.0,1.0,39,0.00,,,0.00,Wunderground v.1.15,2013-05-25 00:35:00,
2013-05-24 20:45:00,83.4,56.5,29.96,North,11,0.0,0.0,40,0.00,,,0.00,Wunderground v.1.15,2013-05-25 00:45:00,
2013-05-24 20:55:00,83.0,56.2,29.96,North,11,0.0,0.0,40,0.00,,,0.00,Wunderground v.1.15,2013-05-25 00:55:00,
2013-05-24 21:05:00,82.4,55.7,29.97,North,11,0.0,0.0,40,0.00,,,0.00,Wunderground v.1.15,2013-05-25 01:05:00,
2013-05-24 21:15:00,82.2,55.5,29.97,North,11,0.0,0.0,40,0.00,,,0.00,Wunderground v.1.15,2013-05-25 01:15:00,
2013-05-24 21:20:00,82.2,56.2,29.98,North,11,0.0,0.0,41,0.00,,,0.00,Wunderground v.1.15,2013-05-25 01:20:00,
2013-05-24 21:30:00,81.8,55.8,29.98,North,11,0.0,0.0,41,0.00,,,0.00,Wunderground v.1.15,2013-05-25 01:30:00,
2013-05-24 21:40:00,81.1,55.8,29.98,North,11,0.0,0.0,42,0.00,,,0.00,Wunderground v.1.15,2013-05-25 01:40:00,
2013-05-24 21:45:00,80.9,56.9,29.99,North,11,0.0,0.0,44,0.00,,,0.00,Wunderground v.1.15,2013-05-25 01:45:00,
2013-05-24 21:55:00,80.1,56.8,29.99,North,11,0.0,0.0,45,0.00,,,0.00,Wunderground v.1.15,2013-05-25 01:55:00,
2013-05-24 22:00:00,79.8,57.2,29.99,North,11,0.0,0.0,46,0.00,,,0.00,Wunderground v.1.15,2013-05-25 02:00:00,
2013-05-24 22:05:00,79.4,57.4,29.99,North,11,0.0,0.0,47,0.00,,,0.00,Wunderground v.1.15,2013-05-25 02:05:00,
2013-05-24 22:15:00,79.0,57.6,29.99,North,11,0.0,0.0,48,0.00,,,0.00,Wunderground v.1.15,2013-05-25 02:15:00,
2013-05-24 22:20:00,78.6,57.3,30.00,North,11,0.0,0.0,48,0.00,,,0.00,Wunderground v.1.15,2013-05-25 02:20:00,
2013-05-24 22:30:00,78.1,57.4,30.01,North,11,0.0,0.0,49,0.00,,,0.00,Wunderground v.1.15,2013-05-25 02:30:00,
2013-05-24 22:40:00,77.9,58.9,30.01,NNE,32,0.0,0.0,52,0.00,,,0.00,Wunderground v.1.15,2013-05-25 02:40:00,
2013-05-24 22:50:00,77.2,59.8,30.02,NNE,32,0.0,0.0,55,0.00,,,0.00,Wunderground v.1.15,2013-05-25 02:50:00,
2013-05-24 23:00:00,76.3,60.4,30.02,NNE,32,0.0,0.0,58,0.00,,,0.00,Wunderground v.1.15,2013-05-25 03:00:00,
2013-05-24 23:05:00,76.0,61.1,30.02,NNE,32,0.0,0.0,60,0.00,,,0.00,Wunderground v.1.15,2013-05-25 03:05:00,
2013-05-24 23:15:00,75.4,61.5,30.02,NNE,32,0.0,0.0,62,0.00,,,0.00,Wunderground v.1.15,2013-05-25 03:15:00,
2013-05-24 23:20:00,75.3,61.8,30.03,NNE,32,0.0,0.0,63,0.00,,,0.00,Wunderground v.1.15,2013-05-25 03:20:00,
2013-05-24 23:30:00,74.7,61.7,30.04,NNE,32,0.0,0.0,64,0.00,,,0.00,Wunderground v.1.15,2013-05-25 03:30:00,
2013-05-24 23:40:00,74.0,61.9,30.04,NNE,32,0.0,0.0,66,0.00,,,0.00,Wunderground v.1.15,2013-05-25 03:40:00,
2013-05-24 23:50:00,73.5,62.3,30.04,NNE,32,0.0,0.0,68,0.00,,,0.00,Wunderground v.1.15,2013-05-25 03:50:00,